Terminal Aerodrome Forecast
Issued by NWS Greer, SC

Home | Current Version | Previous Version | Text Only | Print | Product List | Glossary On
Versions: 1 2 3 4 5 6 7 8 9 10 11 12 13 14 15 16
000
FTUS42 KGSP 230748 AAB
TAFGSP
TAF AMD
KGSP 230748Z 2308/2406 07012G19KT P6SM RA OVC025
     FM230930 07012G20KT 5SM RA OVC012
     FM231200 07014G24KT 3SM RA BR OVC008
     FM231400 07015G25KT 2SM +RA BR OVC004
     FM231800 07013G21KT 3SM RA BR OVC005=

USA.gov is the U.S. government's official web portal to all federal, state and local government web resources and services.